Hauptseite
METAR-TAF:

METAR-TAF

Flughäfen :

Flughafen Genf

Genf, Schweiz

Breite: 46-15N, Länge: 006-08E, Höhe: 420 m

Beobachtung

Neuester Wetterbericht von vor 24 Minuten, um 04:20 UTC
Wind 2 kt aus Nordwest
Temperatur -2°C
Luftfeuchtigkeit 93%
Luftdruck 1028 hPa
Sichtweite: 9000 m

METAR: LSGG 170420Z AUTO 31002KT 9000 NCD M02/M03 Q1028 NOSIG

Zeit: 05:44 (04:44 UTC)

Prognose

Neuester Wetterbericht von vor 2 Stunden und 19 Minuten, um 02:25 UTC
Gültige Prognose vom 17 um 03 UTC bis 18 um 09 UTC
Wind 3 kt aus unterschiedlichen Richtungen
Sichtweite 10 km oder mehr
keine Wolken unter 1500 m und keine Kumulonimbus oder Gewitterwolken

TAF: LSGG 170225Z 1703/1809 VRB03KT CAVOK TX11/1715Z TNM03/1706Z TNM03/1806Z

Wetterbeobachtungen und Prognosen von mehr als 4000 Flughäfen (METAR und TAF Bericht).

Die verfügbaren Stationen werden durch gelbe und rote Markierungen auf der Karte dargestellt.

Führen Sie die Maus auf sie, um den Namen der Station zu sehen.

Darauf klicken, um die Beobachtung von Wetterbeobachtungen und Prognosen zu sehen.

Um die Karte zu ändern : klicken Sie auf den grünen Tasten mit einem schwarzen Kreuz Zum Vergrößern, auf den grünen Button mit einem Gedankenstrich zu verkleinern, oder auf die grünen Pfeile für benachbarte Karten.


METAR-TAF: